KFXE/FXE METAR and TAF weather

Enter ICAO airport designator
Station Type Date Time Source
KFXE METAR 2021/08/05 02:53 UTC NOAA

KFXE 050253Z 13003KT 10SM CLR 27/24 A3008 RMK AO2 SLP188 6//// T02670239 51013 PNO


Station Type Date Time Source
KFXE Decoded METAR 2021/08/05 02:53 UTC NOAA

FORT LAUDERDALE EXECUTIVE, FL, United States (KFXE) 26-12N 080-11W 6M
Aug 04, 2021 - 10:53 PM EDT / 2021.08.05 0253 UTC
Wind: from the SE (130 degrees) at 3 MPH (3 KT):0
Visibility: 10 mile(s):0
Sky conditions: clear
Temperature: 80.1 F (26.7 C)
Dew Point: 75.0 F (23.9 C)
Relative Humidity: 84%
Pressure (altimeter): 30.08 in. Hg (1018 hPa)
Pressure tendency: 0.04 inches (1.3 hPa) higher than three hours ago
ob: KFXE 050253Z 13003KT 10SM CLR 27/24 A3008 RMK AO2 SLP188 6//// T02670239 51013 PNO
cycle: 3

Station Type Date Time Source
KFXE TAF 2021/08/05 03:09 UTC NOAA

TAF
AMD KFXE 050306Z 0503/0524 VRB03KT P6SM FEW025 SCT150 BKN250
FM051400 12008KT P6SM VCSH SCT025 BKN050 PROB30 0517/0519 6SM TSRA SCT025CB BKN035

Example: see airport list